sensor_id;sensor_type;location;lat;lon;timestamp;temperature;humidity
51476;DHT22;37554;50.362;7.568;2023-01-05T00:01:31;15.10;72.50
51476;DHT22;37554;50.362;7.568;2023-01-05T00:03:56;15.10;71.80
51476;DHT22;37554;50.362;7.568;2023-01-05T00:06:22;15.10;71.80
51476;DHT22;37554;50.362;7.568;2023-01-05T00:08:48;15.10;71.80
51476;DHT22;37554;50.362;7.568;2023-01-05T00:11:23;15.10;71.70
51476;DHT22;37554;50.362;7.568;2023-01-05T00:14:12;15.10;71.70
51476;DHT22;37554;50.362;7.568;2023-01-05T00:16:57;15.10;71.60
51476;DHT22;37554;50.362;7.568;2023-01-05T00:19:41;15.10;71.50
51476;DHT22;37554;50.362;7.568;2023-01-05T00:22:26;15.10;71.30
51476;DHT22;37554;50.362;7.568;2023-01-05T00:25:14;15.10;71.70
51476;DHT22;37554;50.362;7.568;2023-01-05T00:27:41;15.10;71.00
51476;DHT22;37554;50.362;7.568;2023-01-05T00:30:09;15.10;70.80
51476;DHT22;37554;50.362;7.568;2023-01-05T00:32:36;15.10;70.60
51476;DHT22;37554;50.362;7.568;2023-01-05T00:35:02;15.10;70.40
51476;DHT22;37554;50.362;7.568;2023-01-05T00:37:30;15.10;70.20
51476;DHT22;37554;50.362;7.568;2023-01-05T00:39:57;15.10;70.00
51476;DHT22;37554;50.362;7.568;2023-01-05T00:42:23;15.10;69.80
51476;DHT22;37554;50.362;7.568;2023-01-05T00:44:49;15.10;69.60
51476;DHT22;37554;50.362;7.568;2023-01-05T00:47:14;15.10;69.40
51476;DHT22;37554;50.362;7.568;2023-01-05T00:49:40;15.10;69.20
51476;DHT22;37554;50.362;7.568;2023-01-05T00:52:06;15.10;69.10
51476;DHT22;37554;50.362;7.568;2023-01-05T00:54:32;15.10;69.00
51476;DHT22;37554;50.362;7.568;2023-01-05T00:56:57;15.10;68.80
51476;DHT22;37554;50.362;7.568;2023-01-05T00:59:23;15.10;68.60
51476;DHT22;37554;50.362;7.568;2023-01-05T01:01:50;15.10;68.50
51476;DHT22;37554;50.362;7.568;2023-01-05T01:04:17;15.10;68.40
51476;DHT22;37554;50.362;7.568;2023-01-05T01:06:43;15.10;68.20
51476;DHT22;37554;50.362;7.568;2023-01-05T01:09:09;15.10;68.20
51476;DHT22;37554;50.362;7.568;2023-01-05T01:11:35;15.10;68.20
51476;DHT22;37554;50.362;7.568;2023-01-05T01:14:03;15.10;68.10
51476;DHT22;37554;50.362;7.568;2023-01-05T01:16:28;15.10;68.00
51476;DHT22;37554;50.362;7.568;2023-01-05T01:18:55;15.10;67.80
51476;DHT22;37554;50.362;7.568;2023-01-05T01:21:21;15.10;67.80
51476;DHT22;37554;50.362;7.568;2023-01-05T01:23:47;15.10;67.60
51476;DHT22;37554;50.362;7.568;2023-01-05T01:26:12;15.10;67.50
51476;DHT22;37554;50.362;7.568;2023-01-05T01:28:38;15.10;67.30
51476;DHT22;37554;50.362;7.568;2023-01-05T01:31:05;15.10;67.30
51476;DHT22;37554;50.362;7.568;2023-01-05T01:33:31;15.10;67.10
51476;DHT22;37554;50.362;7.568;2023-01-05T01:35:58;15.10;66.90
51476;DHT22;37554;50.362;7.568;2023-01-05T01:38:27;15.10;66.70
51476;DHT22;37554;50.362;7.568;2023-01-05T01:40:53;15.10;66.60
51476;DHT22;37554;50.362;7.568;2023-01-05T01:46:02;15.10;66.00
51476;DHT22;37554;50.362;7.568;2023-01-05T01:48:28;15.10;66.20
51476;DHT22;37554;50.362;7.568;2023-01-05T01:50:54;15.10;66.10
51476;DHT22;37554;50.362;7.568;2023-01-05T01:53:25;15.10;66.00
51476;DHT22;37554;50.362;7.568;2023-01-05T01:55:53;15.10;65.90
51476;DHT22;37554;50.362;7.568;2023-01-05T01:58:23;15.10;65.80
51476;DHT22;37554;50.362;7.568;2023-01-05T02:00:49;15.10;65.70
51476;DHT22;37554;50.362;7.568;2023-01-05T02:03:15;15.10;65.70
51476;DHT22;37554;50.362;7.568;2023-01-05T02:05:41;15.10;65.60
51476;DHT22;37554;50.362;7.568;2023-01-05T02:08:14;15.10;65.60
51476;DHT22;37554;50.362;7.568;2023-01-05T02:27:44;15.00;65.30
51476;DHT22;37554;50.362;7.568;2023-01-05T02:38:38;15.00;65.00
51476;DHT22;37554;50.362;7.568;2023-01-05T02:41:16;15.00;65.00
51476;DHT22;37554;50.362;7.568;2023-01-05T02:43:44;15.00;64.90
51476;DHT22;37554;50.362;7.568;2023-01-05T02:46:10;15.00;64.90
51476;DHT22;37554;50.362;7.568;2023-01-05T02:48:37;15.00;64.70
51476;DHT22;37554;50.362;7.568;2023-01-05T02:51:09;15.00;64.70
51476;DHT22;37554;50.362;7.568;2023-01-05T02:53:39;15.10;64.60
51476;DHT22;37554;50.362;7.568;2023-01-05T02:56:11;15.00;64.50
51476;DHT22;37554;50.362;7.568;2023-01-05T02:59:15;15.00;64.40
51476;DHT22;37554;50.362;7.568;2023-01-05T03:01:50;15.00;64.20
51476;DHT22;37554;50.362;7.568;2023-01-05T03:04:22;15.00;64.40
51476;DHT22;37554;50.362;7.568;2023-01-05T03:07:01;15.00;64.30
51476;DHT22;37554;50.362;7.568;2023-01-05T03:09:33;15.00;64.20
51476;DHT22;37554;50.362;7.568;2023-01-05T03:15:10;15.00;64.10
51476;DHT22;37554;50.362;7.568;2023-01-05T03:17:49;15.00;64.10
51476;DHT22;37554;50.362;7.568;2023-01-05T03:20:18;15.00;64.20
51476;DHT22;37554;50.362;7.568;2023-01-05T03:22:47;15.00;64.10
51476;DHT22;37554;50.362;7.568;2023-01-05T03:25:32;15.00;64.10
51476;DHT22;37554;50.362;7.568;2023-01-05T03:28:21;15.00;64.10
51476;DHT22;37554;50.362;7.568;2023-01-05T03:31:21;15.00;64.00
51476;DHT22;37554;50.362;7.568;2023-01-05T03:34:24;15.00;63.90
51476;DHT22;37554;50.362;7.568;2023-01-05T03:37:17;15.00;64.00
51476;DHT22;37554;50.362;7.568;2023-01-05T03:39:46;15.00;64.00
51476;DHT22;37554;50.362;7.568;2023-01-05T03:42:13;15.00;63.90
51476;DHT22;37554;50.362;7.568;2023-01-05T03:44:40;15.00;63.90
51476;DHT22;37554;50.362;7.568;2023-01-05T03:47:08;15.00;63.90
51476;DHT22;37554;50.362;7.568;2023-01-05T03:49:34;15.00;63.90
51476;DHT22;37554;50.362;7.568;2023-01-05T03:51:59;15.00;63.90
51476;DHT22;37554;50.362;7.568;2023-01-05T03:54:25;15.00;63.90
51476;DHT22;37554;50.362;7.568;2023-01-05T03:56:50;15.00;63.90
51476;DHT22;37554;50.362;7.568;2023-01-05T03:59:16;15.00;63.90
51476;DHT22;37554;50.362;7.568;2023-01-05T04:01:42;15.00;63.90
51476;DHT22;37554;50.362;7.568;2023-01-05T04:04:07;15.00;63.90
51476;DHT22;37554;50.362;7.568;2023-01-05T04:06:33;15.00;63.90
51476;DHT22;37554;50.362;7.568;2023-01-05T04:08:58;15.00;63.90
51476;DHT22;37554;50.362;7.568;2023-01-05T04:11:24;15.00;63.90
51476;DHT22;37554;50.362;7.568;2023-01-05T04:13:50;15.00;63.90
51476;DHT22;37554;50.362;7.568;2023-01-05T04:16:16;14.90;63.80
51476;DHT22;37554;50.362;7.568;2023-01-05T04:18:42;15.00;63.80
51476;DHT22;37554;50.362;7.568;2023-01-05T04:21:08;15.00;63.80
51476;DHT22;37554;50.362;7.568;2023-01-05T04:23:34;15.00;63.80
51476;DHT22;37554;50.362;7.568;2023-01-05T04:25:59;15.00;63.70
51476;DHT22;37554;50.362;7.568;2023-01-05T04:28:25;15.00;63.70
51476;DHT22;37554;50.362;7.568;2023-01-05T04:30:53;15.00;63.70
51476;DHT22;37554;50.362;7.568;2023-01-05T04:33:19;14.90;63.60
51476;DHT22;37554;50.362;7.568;2023-01-05T04:35:46;15.00;63.70
51476;DHT22;37554;50.362;7.568;2023-01-05T04:38:12;15.00;63.70
51476;DHT22;37554;50.362;7.568;2023-01-05T04:40:38;14.90;63.70
51476;DHT22;37554;50.362;7.568;2023-01-05T04:43:04;14.90;64.30
51476;DHT22;37554;50.362;7.568;2023-01-05T04:45:30;14.90;63.60
51476;DHT22;37554;50.362;7.568;2023-01-05T04:47:56;14.90;63.60
51476;DHT22;37554;50.362;7.568;2023-01-05T04:50:22;14.90;63.60
51476;DHT22;37554;50.362;7.568;2023-01-05T04:52:48;14.90;63.60
51476;DHT22;37554;50.362;7.568;2023-01-05T04:55:14;14.90;63.60
51476;DHT22;37554;50.362;7.568;2023-01-05T04:57:39;14.90;63.60
51476;DHT22;37554;50.362;7.568;2023-01-05T05:00:06;14.90;63.60
51476;DHT22;37554;50.362;7.568;2023-01-05T05:02:32;14.90;63.60
51476;DHT22;37554;50.362;7.568;2023-01-05T05:04:57;15.00;63.70
51476;DHT22;37554;50.362;7.568;2023-01-05T05:07:23;14.90;64.30
51476;DHT22;37554;50.362;7.568;2023-01-05T05:09:48;14.90;63.60
51476;DHT22;37554;50.362;7.568;2023-01-05T05:12:14;14.90;63.60
51476;DHT22;37554;50.362;7.568;2023-01-05T05:14:40;14.90;63.60
51476;DHT22;37554;50.362;7.568;2023-01-05T05:17:06;14.90;63.60
51476;DHT22;37554;50.362;7.568;2023-01-05T05:19:32;14.90;63.60
51476;DHT22;37554;50.362;7.568;2023-01-05T05:21:58;14.90;63.60
51476;DHT22;37554;50.362;7.568;2023-01-05T05:24:23;14.90;63.60
51476;DHT22;37554;50.362;7.568;2023-01-05T05:26:49;14.90;63.60
51476;DHT22;37554;50.362;7.568;2023-01-05T05:29:15;14.90;63.60
51476;DHT22;37554;50.362;7.568;2023-01-05T05:31:40;14.90;63.50
51476;DHT22;37554;50.362;7.568;2023-01-05T05:34:06;14.90;63.60
51476;DHT22;37554;50.362;7.568;2023-01-05T05:36:31;14.90;63.60
51476;DHT22;37554;50.362;7.568;2023-01-05T05:38:57;14.90;63.60
51476;DHT22;37554;50.362;7.568;2023-01-05T05:41:23;14.90;63.50
51476;DHT22;37554;50.362;7.568;2023-01-05T05:43:49;14.90;63.50
51476;DHT22;37554;50.362;7.568;2023-01-05T05:46:15;14.90;63.50
51476;DHT22;37554;50.362;7.568;2023-01-05T05:48:40;14.90;63.50
51476;DHT22;37554;50.362;7.568;2023-01-05T05:51:06;14.90;63.40
51476;DHT22;37554;50.362;7.568;2023-01-05T05:53:32;14.90;63.40
51476;DHT22;37554;50.362;7.568;2023-01-05T05:55:57;14.90;63.50
51476;DHT22;37554;50.362;7.568;2023-01-05T05:58:23;14.90;63.40
51476;DHT22;37554;50.362;7.568;2023-01-05T06:00:49;14.90;63.50
51476;DHT22;37554;50.362;7.568;2023-01-05T06:03:14;14.90;63.40
51476;DHT22;37554;50.362;7.568;2023-01-05T06:05:40;14.90;63.50
51476;DHT22;37554;50.362;7.568;2023-01-05T06:08:06;14.90;63.50
51476;DHT22;37554;50.362;7.568;2023-01-05T06:10:31;14.90;63.50
51476;DHT22;37554;50.362;7.568;2023-01-05T06:12:57;14.90;64.10
51476;DHT22;37554;50.362;7.568;2023-01-05T06:15:23;14.90;63.40
51476;DHT22;37554;50.362;7.568;2023-01-05T06:17:48;14.90;63.40
51476;DHT22;37554;50.362;7.568;2023-01-05T06:20:15;14.90;63.40
51476;DHT22;37554;50.362;7.568;2023-01-05T06:22:42;14.90;63.40
51476;DHT22;37554;50.362;7.568;2023-01-05T06:25:08;14.90;63.30
51476;DHT22;37554;50.362;7.568;2023-01-05T06:27:34;14.90;63.30
51476;DHT22;37554;50.362;7.568;2023-01-05T06:30:00;14.90;63.30
51476;DHT22;37554;50.362;7.568;2023-01-05T06:32:25;14.90;63.30
51476;DHT22;37554;50.362;7.568;2023-01-05T06:34:51;14.80;63.30
51476;DHT22;37554;50.362;7.568;2023-01-05T06:37:18;14.90;63.30
51476;DHT22;37554;50.362;7.568;2023-01-05T06:39:43;14.90;63.30
51476;DHT22;37554;50.362;7.568;2023-01-05T06:42:09;14.90;63.30
51476;DHT22;37554;50.362;7.568;2023-01-05T06:44:35;14.90;63.30
51476;DHT22;37554;50.362;7.568;2023-01-05T06:47:00;14.80;63.30
51476;DHT22;37554;50.362;7.568;2023-01-05T06:49:26;14.80;63.30
51476;DHT22;37554;50.362;7.568;2023-01-05T06:51:52;14.80;63.30
51476;DHT22;37554;50.362;7.568;2023-01-05T06:54:17;14.90;63.30
51476;DHT22;37554;50.362;7.568;2023-01-05T06:56:43;14.90;63.30
51476;DHT22;37554;50.362;7.568;2023-01-05T06:59:10;14.90;63.20
51476;DHT22;37554;50.362;7.568;2023-01-05T07:01:37;14.80;63.20
51476;DHT22;37554;50.362;7.568;2023-01-05T07:04:02;14.90;63.20
51476;DHT22;37554;50.362;7.568;2023-01-05T07:06:28;14.90;63.20
51476;DHT22;37554;50.362;7.568;2023-01-05T07:08:56;14.80;63.20
51476;DHT22;37554;50.362;7.568;2023-01-05T07:11:21;14.80;63.20
51476;DHT22;37554;50.362;7.568;2023-01-05T07:13:48;14.80;63.20
51476;DHT22;37554;50.362;7.568;2023-01-05T07:16:14;14.80;63.20
51476;DHT22;37554;50.362;7.568;2023-01-05T07:18:40;14.80;63.20
51476;DHT22;37554;50.362;7.568;2023-01-05T07:21:05;14.80;63.30
51476;DHT22;37554;50.362;7.568;2023-01-05T07:23:31;14.80;63.30
51476;DHT22;37554;50.362;7.568;2023-01-05T07:25:59;14.80;63.30
51476;DHT22;37554;50.362;7.568;2023-01-05T07:28:25;14.80;63.30
51476;DHT22;37554;50.362;7.568;2023-01-05T07:30:51;14.80;63.40
51476;DHT22;37554;50.362;7.568;2023-01-05T07:33:17;14.80;63.40
51476;DHT22;37554;50.362;7.568;2023-01-05T07:35:43;14.80;63.40
51476;DHT22;37554;50.362;7.568;2023-01-05T07:38:08;14.80;63.40
51476;DHT22;37554;50.362;7.568;2023-01-05T07:40:35;14.80;63.50
51476;DHT22;37554;50.362;7.568;2023-01-05T07:43:00;14.80;63.50
51476;DHT22;37554;50.362;7.568;2023-01-05T07:45:26;14.80;63.50
51476;DHT22;37554;50.362;7.568;2023-01-05T07:47:51;14.80;63.50
51476;DHT22;37554;50.362;7.568;2023-01-05T07:50:17;14.80;63.50
51476;DHT22;37554;50.362;7.568;2023-01-05T07:52:43;14.80;63.60
51476;DHT22;37554;50.362;7.568;2023-01-05T07:55:09;14.80;63.60
51476;DHT22;37554;50.362;7.568;2023-01-05T07:57:34;14.80;63.60
51476;DHT22;37554;50.362;7.568;2023-01-05T08:00:00;14.90;63.60
51476;DHT22;37554;50.362;7.568;2023-01-05T08:02:25;14.80;63.60
51476;DHT22;37554;50.362;7.568;2023-01-05T08:04:52;14.90;63.60
51476;DHT22;37554;50.362;7.568;2023-01-05T08:07:17;14.80;63.60
51476;DHT22;37554;50.362;7.568;2023-01-05T08:09:43;14.80;63.60
51476;DHT22;37554;50.362;7.568;2023-01-05T08:12:28;14.90;63.60
51476;DHT22;37554;50.362;7.568;2023-01-05T08:14:53;14.90;63.60
51476;DHT22;37554;50.362;7.568;2023-01-05T08:17:19;14.90;63.60
51476;DHT22;37554;50.362;7.568;2023-01-05T08:19:45;14.90;63.60
51476;DHT22;37554;50.362;7.568;2023-01-05T08:22:10;14.90;63.60
51476;DHT22;37554;50.362;7.568;2023-01-05T08:24:36;14.90;63.60
51476;DHT22;37554;50.362;7.568;2023-01-05T08:27:02;14.90;63.60
51476;DHT22;37554;50.362;7.568;2023-01-05T08:29:28;14.90;63.60
51476;DHT22;37554;50.362;7.568;2023-01-05T08:31:53;15.00;63.70
51476;DHT22;37554;50.362;7.568;2023-01-05T08:34:19;14.90;63.60
51476;DHT22;37554;50.362;7.568;2023-01-05T08:36:45;14.90;63.50
51476;DHT22;37554;50.362;7.568;2023-01-05T08:39:11;14.80;63.60
51476;DHT22;37554;50.362;7.568;2023-01-05T08:41:38;14.70;63.70
51476;DHT22;37554;50.362;7.568;2023-01-05T08:44:13;14.70;63.90
51476;DHT22;37554;50.362;7.568;2023-01-05T08:46:39;14.70;63.80
51476;DHT22;37554;50.362;7.568;2023-01-05T08:49:06;14.70;63.80
51476;DHT22;37554;50.362;7.568;2023-01-05T08:51:32;14.70;63.70
51476;DHT22;37554;50.362;7.568;2023-01-05T08:53:57;14.70;63.50
51476;DHT22;37554;50.362;7.568;2023-01-05T08:56:24;14.70;63.60
51476;DHT22;37554;50.362;7.568;2023-01-05T08:58:50;14.90;63.60
51476;DHT22;37554;50.362;7.568;2023-01-05T09:01:18;15.00;63.50
51476;DHT22;37554;50.362;7.568;2023-01-05T09:03:45;15.10;63.30
51476;DHT22;37554;50.362;7.568;2023-01-05T09:06:11;15.20;63.10
51476;DHT22;37554;50.362;7.568;2023-01-05T09:08:39;15.30;63.00
51476;DHT22;37554;50.362;7.568;2023-01-05T09:11:06;15.30;62.90
51476;DHT22;37554;50.362;7.568;2023-01-05T09:13:34;15.40;62.90
51476;DHT22;37554;50.362;7.568;2023-01-05T09:16:04;15.40;62.80
51476;DHT22;37554;50.362;7.568;2023-01-05T09:18:47;15.40;62.80
51476;DHT22;37554;50.362;7.568;2023-01-05T09:21:21;15.50;62.70
51476;DHT22;37554;50.362;7.568;2023-01-05T09:23:46;15.50;62.70
51476;DHT22;37554;50.362;7.568;2023-01-05T09:26:16;15.50;62.70
51476;DHT22;37554;50.362;7.568;2023-01-05T09:28:50;15.50;62.80
51476;DHT22;37554;50.362;7.568;2023-01-05T09:31:19;15.60;62.70
51476;DHT22;37554;50.362;7.568;2023-01-05T09:33:48;15.60;63.40
51476;DHT22;37554;50.362;7.568;2023-01-05T09:36:15;15.60;62.70
51476;DHT22;37554;50.362;7.568;2023-01-05T09:38:47;15.60;62.80
51476;DHT22;37554;50.362;7.568;2023-01-05T09:41:20;15.60;62.80
51476;DHT22;37554;50.362;7.568;2023-01-05T09:43:49;15.60;62.80
51476;DHT22;37554;50.362;7.568;2023-01-05T09:46:40;15.60;62.90
51476;DHT22;37554;50.362;7.568;2023-01-05T09:49:05;15.70;63.00
51476;DHT22;37554;50.362;7.568;2023-01-05T09:51:32;15.70;62.90
51476;DHT22;37554;50.362;7.568;2023-01-05T09:53:58;15.70;62.90
51476;DHT22;37554;50.362;7.568;2023-01-05T09:56:29;15.70;62.90
51476;DHT22;37554;50.362;7.568;2023-01-05T09:59:05;15.80;62.90
51476;DHT22;37554;50.362;7.568;2023-01-05T10:01:33;15.80;63.00
51476;DHT22;37554;50.362;7.568;2023-01-05T10:04:04;15.80;63.00
51476;DHT22;37554;50.362;7.568;2023-01-05T10:06:43;15.80;62.90
51476;DHT22;37554;50.362;7.568;2023-01-05T10:09:17;15.90;62.80
51476;DHT22;37554;50.362;7.568;2023-01-05T10:11:58;16.00;62.70
51476;DHT22;37554;50.362;7.568;2023-01-05T10:14:48;16.10;62.30
51476;DHT22;37554;50.362;7.568;2023-01-05T10:17:20;16.20;62.20
51476;DHT22;37554;50.362;7.568;2023-01-05T10:23:08;16.20;62.10
51476;DHT22;37554;50.362;7.568;2023-01-05T10:31:55;16.30;62.20
51476;DHT22;37554;50.362;7.568;2023-01-05T10:38:05;16.40;62.10
51476;DHT22;37554;50.362;7.568;2023-01-05T10:41:02;16.50;62.00
51476;DHT22;37554;50.362;7.568;2023-01-05T10:44:26;16.80;61.50
51476;DHT22;37554;50.362;7.568;2023-01-05T10:46:55;16.70;60.50
51476;DHT22;37554;50.362;7.568;2023-01-05T10:49:31;16.60;61.10
51476;DHT22;37554;50.362;7.568;2023-01-05T10:52:00;16.70;61.20
51476;DHT22;37554;50.362;7.568;2023-01-05T10:54:43;16.90;61.30
51476;DHT22;37554;50.362;7.568;2023-01-05T10:59:56;17.20;61.10
51476;DHT22;37554;50.362;7.568;2023-01-05T11:02:31;17.30;60.80
51476;DHT22;37554;50.362;7.568;2023-01-05T11:07:52;17.40;60.50
51476;DHT22;37554;50.362;7.568;2023-01-05T11:10:32;17.40;60.50
51476;DHT22;37554;50.362;7.568;2023-01-05T11:16:27;17.40;60.50
51476;DHT22;37554;50.362;7.568;2023-01-05T11:19:01;17.40;60.50
51476;DHT22;37554;50.362;7.568;2023-01-05T11:21:40;17.40;60.60
51476;DHT22;37554;50.362;7.568;2023-01-05T11:24:36;17.30;60.70
51476;DHT22;37554;50.362;7.568;2023-01-05T11:36:17;17.10;61.30
51476;DHT22;37554;50.362;7.568;2023-01-05T11:38:54;17.30;61.20
51476;DHT22;37554;50.362;7.568;2023-01-05T11:41:22;18.00;60.40
51476;DHT22;37554;50.362;7.568;2023-01-05T11:43:49;18.10;59.30
51476;DHT22;37554;50.362;7.568;2023-01-05T11:46:16;18.40;58.80
51476;DHT22;37554;50.362;7.568;2023-01-05T11:48:55;18.50;58.30
51476;DHT22;37554;50.362;7.568;2023-01-05T11:51:39;18.40;58.30
51476;DHT22;37554;50.362;7.568;2023-01-05T11:54:31;18.20;59.10
51476;DHT22;37554;50.362;7.568;2023-01-05T11:57:26;18.20;58.70
51476;DHT22;37554;50.362;7.568;2023-01-05T11:59:55;18.20;58.50
51476;DHT22;37554;50.362;7.568;2023-01-05T12:08:19;18.30;57.90
51476;DHT22;37554;50.362;7.568;2023-01-05T12:11:26;18.40;57.60
51476;DHT22;37554;50.362;7.568;2023-01-05T12:14:31;18.40;57.50
51476;DHT22;37554;50.362;7.568;2023-01-05T12:20:48;18.50;56.70
51476;DHT22;37554;50.362;7.568;2023-01-05T12:29:29;18.40;56.80
51476;DHT22;37554;50.362;7.568;2023-01-05T12:44:44;18.20;56.30
51476;DHT22;37554;50.362;7.568;2023-01-05T12:47:43;18.30;56.40
51476;DHT22;37554;50.362;7.568;2023-01-05T12:50:29;18.30;56.60
51476;DHT22;37554;50.362;7.568;2023-01-05T13:01:35;18.60;55.80
51476;DHT22;37554;50.362;7.568;2023-01-05T13:04:09;18.60;56.00
51476;DHT22;37554;50.362;7.568;2023-01-05T13:06:39;18.50;56.00
51476;DHT22;37554;50.362;7.568;2023-01-05T13:09:14;18.30;56.10
51476;DHT22;37554;50.362;7.568;2023-01-05T13:11:48;18.30;56.10
51476;DHT22;37554;50.362;7.568;2023-01-05T13:14:23;18.20;56.30
51476;DHT22;37554;50.362;7.568;2023-01-05T13:17:15;18.10;56.30
51476;DHT22;37554;50.362;7.568;2023-01-05T13:19:47;18.20;56.40
51476;DHT22;37554;50.362;7.568;2023-01-05T13:22:22;18.10;56.30
51476;DHT22;37554;50.362;7.568;2023-01-05T13:25:02;18.10;56.40
51476;DHT22;37554;50.362;7.568;2023-01-05T13:27:29;18.00;56.30
51476;DHT22;37554;50.362;7.568;2023-01-05T13:29:58;18.00;56.60
51476;DHT22;37554;50.362;7.568;2023-01-05T13:32:45;17.90;56.60
51476;DHT22;37554;50.362;7.568;2023-01-05T13:35:42;17.90;56.50
51476;DHT22;37554;50.362;7.568;2023-01-05T13:47:14;17.80;56.60
51476;DHT22;37554;50.362;7.568;2023-01-05T13:59:00;17.50;57.20
51476;DHT22;37554;50.362;7.568;2023-01-05T14:07:25;17.60;57.20
51476;DHT22;37554;50.362;7.568;2023-01-05T14:09:59;17.60;57.50
51476;DHT22;37554;50.362;7.568;2023-01-05T14:12:46;17.50;57.60
51476;DHT22;37554;50.362;7.568;2023-01-05T14:15:31;17.40;57.00
51476;DHT22;37554;50.362;7.568;2023-01-05T14:17:58;16.90;57.20
51476;DHT22;37554;50.362;7.568;2023-01-05T14:20:30;16.40;58.60
51476;DHT22;37554;50.362;7.568;2023-01-05T14:22:57;16.00;59.50
51476;DHT22;37554;50.362;7.568;2023-01-05T14:30:47;15.70;61.30
51476;DHT22;37554;50.362;7.568;2023-01-05T14:33:18;15.80;60.90
51476;DHT22;37554;50.362;7.568;2023-01-05T14:35:45;16.00;60.70
51476;DHT22;37554;50.362;7.568;2023-01-05T14:38:15;16.20;60.30
51476;DHT22;37554;50.362;7.568;2023-01-05T14:40:44;16.30;60.10
51476;DHT22;37554;50.362;7.568;2023-01-05T14:48:56;16.50;59.60
51476;DHT22;37554;50.362;7.568;2023-01-05T14:51:25;16.50;59.50
51476;DHT22;37554;50.362;7.568;2023-01-05T14:53:55;16.60;59.50
51476;DHT22;37554;50.362;7.568;2023-01-05T14:56:26;16.60;59.50
51476;DHT22;37554;50.362;7.568;2023-01-05T15:04:03;16.60;60.20
51476;DHT22;37554;50.362;7.568;2023-01-05T15:06:36;16.60;59.60
51476;DHT22;37554;50.362;7.568;2023-01-05T15:20:28;16.50;59.80
51476;DHT22;37554;50.362;7.568;2023-01-05T15:26:09;16.50;60.00
51476;DHT22;37554;50.362;7.568;2023-01-05T15:31:51;16.40;60.10
51476;DHT22;37554;50.362;7.568;2023-01-05T15:34:33;16.40;60.30
51476;DHT22;37554;50.362;7.568;2023-01-05T15:37:12;16.40;60.30
51476;DHT22;37554;50.362;7.568;2023-01-05T15:39:53;16.40;60.40
51476;DHT22;37554;50.362;7.568;2023-01-05T15:44:49;16.30;60.40
51476;DHT22;37554;50.362;7.568;2023-01-05T15:47:19;16.30;60.50
51476;DHT22;37554;50.362;7.568;2023-01-05T15:49:48;16.30;60.60
51476;DHT22;37554;50.362;7.568;2023-01-05T15:52:35;16.30;60.60
51476;DHT22;37554;50.362;7.568;2023-01-05T15:55:12;16.20;60.70
51476;DHT22;37554;50.362;7.568;2023-01-05T15:57:39;16.20;60.70
51476;DHT22;37554;50.362;7.568;2023-01-05T16:00:26;16.20;60.70
51476;DHT22;37554;50.362;7.568;2023-01-05T16:02:52;16.20;60.90
51476;DHT22;37554;50.362;7.568;2023-01-05T16:05:20;16.20;61.00
51476;DHT22;37554;50.362;7.568;2023-01-05T16:07:57;16.20;61.00
51476;DHT22;37554;50.362;7.568;2023-01-05T16:15:34;16.10;61.20
51476;DHT22;37554;50.362;7.568;2023-01-05T16:18:01;16.10;61.30
51476;DHT22;37554;50.362;7.568;2023-01-05T16:20:29;16.10;61.40
51476;DHT22;37554;50.362;7.568;2023-01-05T16:23:06;16.10;61.40
51476;DHT22;37554;50.362;7.568;2023-01-05T16:25:40;16.10;61.50
51476;DHT22;37554;50.362;7.568;2023-01-05T16:28:22;16.10;61.60
51476;DHT22;37554;50.362;7.568;2023-01-05T16:30:49;16.10;61.60
51476;DHT22;37554;50.362;7.568;2023-01-05T16:33:28;16.10;61.70
51476;DHT22;37554;50.362;7.568;2023-01-05T16:38:32;16.00;61.80
51476;DHT22;37554;50.362;7.568;2023-01-05T16:41:24;16.00;61.80
51476;DHT22;37554;50.362;7.568;2023-01-05T16:48:54;16.00;61.80
51476;DHT22;37554;50.362;7.568;2023-01-05T16:51:35;16.00;61.80
51476;DHT22;37554;50.362;7.568;2023-01-05T16:54:18;16.00;61.90
51476;DHT22;37554;50.362;7.568;2023-01-05T16:56:59;15.90;61.80
51476;DHT22;37554;50.362;7.568;2023-01-05T16:59:45;15.90;61.90
51476;DHT22;37554;50.362;7.568;2023-01-05T17:02:36;15.90;62.00
51476;DHT22;37554;50.362;7.568;2023-01-05T17:05:02;15.90;62.00
51476;DHT22;37554;50.362;7.568;2023-01-05T17:07:31;15.90;62.00
51476;DHT22;37554;50.362;7.568;2023-01-05T17:09:57;15.90;62.10
51476;DHT22;37554;50.362;7.568;2023-01-05T17:12:23;15.90;62.10
51476;DHT22;37554;50.362;7.568;2023-01-05T17:14:48;15.90;62.10
51476;DHT22;37554;50.362;7.568;2023-01-05T17:17:14;15.90;62.10
51476;DHT22;37554;50.362;7.568;2023-01-05T17:19:40;15.90;62.20
51476;DHT22;37554;50.362;7.568;2023-01-05T17:22:06;15.80;62.20
51476;DHT22;37554;50.362;7.568;2023-01-05T17:24:33;15.80;62.20
51476;DHT22;37554;50.362;7.568;2023-01-05T17:27:00;15.80;62.30
51476;DHT22;37554;50.362;7.568;2023-01-05T17:29:28;15.80;62.40
51476;DHT22;37554;50.362;7.568;2023-01-05T17:31:54;15.80;62.40
51476;DHT22;37554;50.362;7.568;2023-01-05T17:34:21;15.80;62.40
51476;DHT22;37554;50.362;7.568;2023-01-05T17:36:48;15.80;62.50
51476;DHT22;37554;50.362;7.568;2023-01-05T17:39:16;15.80;62.50
51476;DHT22;37554;50.362;7.568;2023-01-05T17:41:42;15.80;62.50
51476;DHT22;37554;50.362;7.568;2023-01-05T17:44:07;15.80;62.50
51476;DHT22;37554;50.362;7.568;2023-01-05T17:46:37;15.80;62.60
51476;DHT22;37554;50.362;7.568;2023-01-05T17:49:05;15.80;62.60
51476;DHT22;37554;50.362;7.568;2023-01-05T17:51:30;15.80;62.70
51476;DHT22;37554;50.362;7.568;2023-01-05T17:53:57;15.80;62.70
51476;DHT22;37554;50.362;7.568;2023-01-05T17:56:24;15.80;62.70
51476;DHT22;37554;50.362;7.568;2023-01-05T17:58:50;15.80;62.80
51476;DHT22;37554;50.362;7.568;2023-01-05T18:01:17;15.70;62.70
51476;DHT22;37554;50.362;7.568;2023-01-05T18:03:43;15.80;62.80
51476;DHT22;37554;50.362;7.568;2023-01-05T18:06:08;15.70;62.80
51476;DHT22;37554;50.362;7.568;2023-01-05T18:08:35;15.70;62.80
51476;DHT22;37554;50.362;7.568;2023-01-05T18:11:02;15.70;62.90
51476;DHT22;37554;50.362;7.568;2023-01-05T18:13:28;15.70;62.90
51476;DHT22;37554;50.362;7.568;2023-01-05T18:15:54;15.70;62.90
51476;DHT22;37554;50.362;7.568;2023-01-05T18:18:21;15.70;63.00
51476;DHT22;37554;50.362;7.568;2023-01-05T18:20:47;15.70;63.10
51476;DHT22;37554;50.362;7.568;2023-01-05T18:23:16;15.70;63.20
51476;DHT22;37554;50.362;7.568;2023-01-05T18:25:42;15.70;63.20
51476;DHT22;37554;50.362;7.568;2023-01-05T18:28:07;15.70;63.30
51476;DHT22;37554;50.362;7.568;2023-01-05T18:30:33;15.70;63.40
51476;DHT22;37554;50.362;7.568;2023-01-05T18:32:59;15.70;63.40
51476;DHT22;37554;50.362;7.568;2023-01-05T18:35:25;15.70;63.50
51476;DHT22;37554;50.362;7.568;2023-01-05T18:37:50;15.60;63.50
51476;DHT22;37554;50.362;7.568;2023-01-05T18:40:16;15.60;63.60
51476;DHT22;37554;50.362;7.568;2023-01-05T18:42:42;15.60;63.60